sensor_id;sensor_type;location;lat;lon;timestamp;P1;durP1;ratioP1;P2;durP2;ratioP2
55328;SDS011;41205;44.264;19.884;2023-03-20T00:02:54;30.30;;;20.10;;
55328;SDS011;41205;44.264;19.884;2023-03-20T00:05:21;77.93;;;59.42;;
55328;SDS011;41205;44.264;19.884;2023-03-20T00:07:48;26.00;;;19.85;;
55328;SDS011;41205;44.264;19.884;2023-03-20T00:10:16;22.30;;;13.93;;
55328;SDS011;41205;44.264;19.884;2023-03-20T00:12:43;28.35;;;18.90;;
55328;SDS011;41205;44.264;19.884;2023-03-20T00:17:50;30.05;;;18.90;;
55328;SDS011;41205;44.264;19.884;2023-03-20T00:20:17;61.40;;;42.78;;
55328;SDS011;41205;44.264;19.884;2023-03-20T00:22:43;24.80;;;17.85;;
55328;SDS011;41205;44.264;19.884;2023-03-20T00:25:11;29.05;;;17.42;;
55328;SDS011;41205;44.264;19.884;2023-03-20T00:27:39;26.63;;;17.08;;
55328;SDS011;41205;44.264;19.884;2023-03-20T00:30:15;134.32;;;89.00;;
55328;SDS011;41205;44.264;19.884;2023-03-20T00:32:45;42.17;;;30.60;;
55328;SDS011;41205;44.264;19.884;2023-03-20T00:35:16;20.70;;;14.77;;
55328;SDS011;41205;44.264;19.884;2023-03-20T00:37:47;47.25;;;29.73;;
55328;SDS011;41205;44.264;19.884;2023-03-20T00:40:13;30.65;;;17.60;;
55328;SDS011;41205;44.264;19.884;2023-03-20T00:42:39;19.80;;;14.32;;
55328;SDS011;41205;44.264;19.884;2023-03-20T00:45:07;19.90;;;13.07;;
55328;SDS011;41205;44.264;19.884;2023-03-20T00:47:37;39.67;;;23.50;;
55328;SDS011;41205;44.264;19.884;2023-03-20T00:50:06;60.95;;;46.08;;
55328;SDS011;41205;44.264;19.884;2023-03-20T00:52:46;21.52;;;15.07;;
55328;SDS011;41205;44.264;19.884;2023-03-20T00:55:12;18.67;;;12.93;;
55328;SDS011;41205;44.264;19.884;2023-03-20T00:57:42;16.83;;;12.77;;
55328;SDS011;41205;44.264;19.884;2023-03-20T01:00:20;40.60;;;25.60;;
55328;SDS011;41205;44.264;19.884;2023-03-20T01:02:56;28.65;;;18.63;;
55328;SDS011;41205;44.264;19.884;2023-03-20T01:05:23;23.40;;;16.13;;
55328;SDS011;41205;44.264;19.884;2023-03-20T01:07:49;29.70;;;17.75;;
55328;SDS011;41205;44.264;19.884;2023-03-20T01:10:15;55.08;;;36.85;;
55328;SDS011;41205;44.264;19.884;2023-03-20T01:12:42;30.27;;;21.38;;
55328;SDS011;41205;44.264;19.884;2023-03-20T01:15:17;23.23;;;15.10;;
55328;SDS011;41205;44.264;19.884;2023-03-20T01:17:45;27.10;;;20.27;;
55328;SDS011;41205;44.264;19.884;2023-03-20T01:20:16;16.20;;;12.68;;
55328;SDS011;41205;44.264;19.884;2023-03-20T01:22:45;25.85;;;17.17;;
55328;SDS011;41205;44.264;19.884;2023-03-20T01:25:10;73.57;;;52.75;;
55328;SDS011;41205;44.264;19.884;2023-03-20T01:27:37;92.00;;;61.38;;
55328;SDS011;41205;44.264;19.884;2023-03-20T01:30:05;26.88;;;17.10;;
55328;SDS011;41205;44.264;19.884;2023-03-20T01:32:39;40.05;;;27.23;;
55328;SDS011;41205;44.264;19.884;2023-03-20T01:35:05;34.13;;;21.45;;
55328;SDS011;41205;44.264;19.884;2023-03-20T01:37:32;52.38;;;36.55;;
55328;SDS011;41205;44.264;19.884;2023-03-20T01:39:57;45.97;;;29.40;;
55328;SDS011;41205;44.264;19.884;2023-03-20T01:42:23;25.50;;;19.02;;
55328;SDS011;41205;44.264;19.884;2023-03-20T01:44:49;21.20;;;14.38;;
55328;SDS011;41205;44.264;19.884;2023-03-20T01:47:19;20.70;;;14.63;;
55328;SDS011;41205;44.264;19.884;2023-03-20T01:52:41;36.53;;;21.90;;
55328;SDS011;41205;44.264;19.884;2023-03-20T01:55:06;34.10;;;23.95;;
55328;SDS011;41205;44.264;19.884;2023-03-20T01:57:32;20.55;;;14.18;;
55328;SDS011;41205;44.264;19.884;2023-03-20T02:00:03;17.42;;;12.93;;
55328;SDS011;41205;44.264;19.884;2023-03-20T02:02:33;25.08;;;13.63;;
55328;SDS011;41205;44.264;19.884;2023-03-20T02:05:03;15.48;;;10.20;;
55328;SDS011;41205;44.264;19.884;2023-03-20T02:09:59;16.30;;;12.25;;
55328;SDS011;41205;44.264;19.884;2023-03-20T02:12:29;19.30;;;11.27;;
55328;SDS011;41205;44.264;19.884;2023-03-20T02:14:56;18.17;;;10.68;;
55328;SDS011;41205;44.264;19.884;2023-03-20T02:17:22;17.98;;;11.57;;
55328;SDS011;41205;44.264;19.884;2023-03-20T02:19:53;13.20;;;9.05;;
55328;SDS011;41205;44.264;19.884;2023-03-20T02:42:02;18.45;;;13.00;;
55328;SDS011;41205;44.264;19.884;2023-03-20T02:45:18;18.13;;;11.50;;
55328;SDS011;41205;44.264;19.884;2023-03-20T02:47:42;28.33;;;17.30;;
55328;SDS011;41205;44.264;19.884;2023-03-20T02:50:54;19.90;;;13.23;;
55328;SDS011;41205;44.264;19.884;2023-03-20T02:56:16;17.95;;;12.55;;
55328;SDS011;41205;44.264;19.884;2023-03-20T03:01:22;22.80;;;15.18;;
55328;SDS011;41205;44.264;19.884;2023-03-20T03:03:56;23.40;;;15.02;;
55328;SDS011;41205;44.264;19.884;2023-03-20T03:06:30;23.17;;;15.13;;
55328;SDS011;41205;44.264;19.884;2023-03-20T03:08:59;20.55;;;13.25;;
55328;SDS011;41205;44.264;19.884;2023-03-20T03:11:29;17.80;;;11.43;;
55328;SDS011;41205;44.264;19.884;2023-03-20T03:14:02;16.67;;;10.65;;
55328;SDS011;41205;44.264;19.884;2023-03-20T03:16:31;39.28;;;25.52;;
55328;SDS011;41205;44.264;19.884;2023-03-20T03:19:14;39.75;;;25.67;;
55328;SDS011;41205;44.264;19.884;2023-03-20T03:21:44;19.05;;;11.82;;
55328;SDS011;41205;44.264;19.884;2023-03-20T03:27:00;64.80;;;39.42;;
55328;SDS011;41205;44.264;19.884;2023-03-20T03:29:35;34.25;;;21.25;;
55328;SDS011;41205;44.264;19.884;2023-03-20T03:32:04;50.70;;;33.17;;
55328;SDS011;41205;44.264;19.884;2023-03-20T03:34:31;36.25;;;23.30;;
55328;SDS011;41205;44.264;19.884;2023-03-20T03:45:20;16.55;;;10.05;;
55328;SDS011;41205;44.264;19.884;2023-03-20T03:47:57;9.88;;;6.65;;
55328;SDS011;41205;44.264;19.884;2023-03-20T03:50:53;10.27;;;6.97;;
55328;SDS011;41205;44.264;19.884;2023-03-20T03:53:30;17.90;;;12.43;;
55328;SDS011;41205;44.264;19.884;2023-03-20T03:56:01;18.45;;;11.93;;
55328;SDS011;41205;44.264;19.884;2023-03-20T03:58:37;18.52;;;13.23;;
55328;SDS011;41205;44.264;19.884;2023-03-20T04:01:06;17.30;;;12.77;;
55328;SDS011;41205;44.264;19.884;2023-03-20T04:03:41;13.90;;;9.82;;
55328;SDS011;41205;44.264;19.884;2023-03-20T04:06:11;10.48;;;8.50;;
55328;SDS011;41205;44.264;19.884;2023-03-20T04:08:40;11.90;;;8.40;;
55328;SDS011;41205;44.264;19.884;2023-03-20T04:11:07;10.68;;;7.97;;
55328;SDS011;41205;44.264;19.884;2023-03-20T04:13:43;30.83;;;25.80;;
55328;SDS011;41205;44.264;19.884;2023-03-20T04:16:12;16.45;;;10.65;;
55328;SDS011;41205;44.264;19.884;2023-03-20T04:18:38;25.95;;;17.73;;
55328;SDS011;41205;44.264;19.884;2023-03-20T04:21:05;21.42;;;16.17;;
55328;SDS011;41205;44.264;19.884;2023-03-20T04:23:31;18.20;;;13.10;;
55328;SDS011;41205;44.264;19.884;2023-03-20T04:25:57;12.02;;;8.93;;
55328;SDS011;41205;44.264;19.884;2023-03-20T04:28:23;13.80;;;9.95;;
55328;SDS011;41205;44.264;19.884;2023-03-20T04:30:56;15.07;;;11.30;;
55328;SDS011;41205;44.264;19.884;2023-03-20T04:33:24;17.70;;;12.23;;
55328;SDS011;41205;44.264;19.884;2023-03-20T04:35:50;15.70;;;11.68;;
55328;SDS011;41205;44.264;19.884;2023-03-20T04:38:17;15.18;;;11.20;;
55328;SDS011;41205;44.264;19.884;2023-03-20T04:40:44;18.52;;;10.93;;
55328;SDS011;41205;44.264;19.884;2023-03-20T04:43:10;14.25;;;10.18;;
55328;SDS011;41205;44.264;19.884;2023-03-20T04:45:36;18.38;;;12.90;;
55328;SDS011;41205;44.264;19.884;2023-03-20T04:48:02;18.63;;;13.63;;
55328;SDS011;41205;44.264;19.884;2023-03-20T04:50:29;17.13;;;12.23;;
55328;SDS011;41205;44.264;19.884;2023-03-20T04:52:55;23.25;;;16.15;;
55328;SDS011;41205;44.264;19.884;2023-03-20T04:55:20;23.52;;;17.27;;
55328;SDS011;41205;44.264;19.884;2023-03-20T04:57:46;34.60;;;21.48;;
55328;SDS011;41205;44.264;19.884;2023-03-20T05:00:13;37.90;;;26.50;;
55328;SDS011;41205;44.264;19.884;2023-03-20T05:02:39;30.13;;;23.85;;
55328;SDS011;41205;44.264;19.884;2023-03-20T05:05:05;35.80;;;23.95;;
55328;SDS011;41205;44.264;19.884;2023-03-20T05:07:31;37.85;;;24.42;;
55328;SDS011;41205;44.264;19.884;2023-03-20T05:09:57;22.20;;;16.27;;
55328;SDS011;41205;44.264;19.884;2023-03-20T05:12:23;29.13;;;19.95;;
55328;SDS011;41205;44.264;19.884;2023-03-20T05:14:51;39.95;;;21.75;;
55328;SDS011;41205;44.264;19.884;2023-03-20T05:17:16;38.30;;;23.00;;
55328;SDS011;41205;44.264;19.884;2023-03-20T05:19:43;34.88;;;20.13;;
55328;SDS011;41205;44.264;19.884;2023-03-20T05:22:09;33.38;;;18.15;;
55328;SDS011;41205;44.264;19.884;2023-03-20T05:24:35;31.38;;;17.45;;
55328;SDS011;41205;44.264;19.884;2023-03-20T05:27:00;33.92;;;18.05;;
55328;SDS011;41205;44.264;19.884;2023-03-20T05:29:26;28.05;;;15.25;;
55328;SDS011;41205;44.264;19.884;2023-03-20T05:31:52;23.60;;;13.30;;
55328;SDS011;41205;44.264;19.884;2023-03-20T05:34:19;14.70;;;9.95;;
55328;SDS011;41205;44.264;19.884;2023-03-20T05:36:45;13.45;;;10.98;;
55328;SDS011;41205;44.264;19.884;2023-03-20T05:39:11;18.00;;;9.63;;
55328;SDS011;41205;44.264;19.884;2023-03-20T05:41:36;11.95;;;9.38;;
55328;SDS011;41205;44.264;19.884;2023-03-20T05:44:02;12.60;;;9.07;;
55328;SDS011;41205;44.264;19.884;2023-03-20T05:46:28;20.35;;;9.93;;
55328;SDS011;41205;44.264;19.884;2023-03-20T05:48:54;14.43;;;10.43;;
55328;SDS011;41205;44.264;19.884;2023-03-20T05:51:20;16.65;;;10.73;;
55328;SDS011;41205;44.264;19.884;2023-03-20T05:53:46;16.02;;;10.85;;
55328;SDS011;41205;44.264;19.884;2023-03-20T05:56:11;25.63;;;21.58;;
55328;SDS011;41205;44.264;19.884;2023-03-20T05:58:37;14.88;;;12.02;;
55328;SDS011;41205;44.264;19.884;2023-03-20T06:01:03;16.17;;;11.55;;
55328;SDS011;41205;44.264;19.884;2023-03-20T06:03:29;18.65;;;11.13;;
55328;SDS011;41205;44.264;19.884;2023-03-20T06:05:54;17.48;;;11.75;;
55328;SDS011;41205;44.264;19.884;2023-03-20T06:08:20;19.15;;;13.80;;
55328;SDS011;41205;44.264;19.884;2023-03-20T06:10:46;57.58;;;41.88;;
55328;SDS011;41205;44.264;19.884;2023-03-20T06:13:14;31.58;;;25.98;;
55328;SDS011;41205;44.264;19.884;2023-03-20T06:15:40;37.42;;;29.15;;
55328;SDS011;41205;44.264;19.884;2023-03-20T06:18:05;103.72;;;89.30;;
55328;SDS011;41205;44.264;19.884;2023-03-20T06:20:31;130.05;;;115.03;;
55328;SDS011;41205;44.264;19.884;2023-03-20T06:22:57;77.93;;;70.88;;
55328;SDS011;41205;44.264;19.884;2023-03-20T06:25:23;79.15;;;73.18;;
55328;SDS011;41205;44.264;19.884;2023-03-20T06:27:49;18.27;;;13.73;;
55328;SDS011;41205;44.264;19.884;2023-03-20T06:30:15;30.50;;;27.80;;
55328;SDS011;41205;44.264;19.884;2023-03-20T06:32:41;12.75;;;10.45;;
55328;SDS011;41205;44.264;19.884;2023-03-20T06:35:07;15.20;;;12.68;;
55328;SDS011;41205;44.264;19.884;2023-03-20T06:37:33;18.38;;;13.40;;
55328;SDS011;41205;44.264;19.884;2023-03-20T06:40:00;13.07;;;11.55;;
55328;SDS011;41205;44.264;19.884;2023-03-20T06:42:27;14.32;;;10.98;;
55328;SDS011;41205;44.264;19.884;2023-03-20T06:44:53;15.77;;;12.98;;
55328;SDS011;41205;44.264;19.884;2023-03-20T06:47:20;21.45;;;12.15;;
55328;SDS011;41205;44.264;19.884;2023-03-20T06:49:46;16.90;;;12.75;;
55328;SDS011;41205;44.264;19.884;2023-03-20T06:52:15;24.20;;;18.85;;
55328;SDS011;41205;44.264;19.884;2023-03-20T06:54:42;20.50;;;18.05;;
55328;SDS011;41205;44.264;19.884;2023-03-20T06:57:08;19.30;;;17.27;;
55328;SDS011;41205;44.264;19.884;2023-03-20T06:59:34;14.02;;;12.52;;
55328;SDS011;41205;44.264;19.884;2023-03-20T07:02:00;14.82;;;12.15;;
55328;SDS011;41205;44.264;19.884;2023-03-20T07:04:26;16.92;;;12.75;;
55328;SDS011;41205;44.264;19.884;2023-03-20T07:06:52;14.18;;;12.65;;
55328;SDS011;41205;44.264;19.884;2023-03-20T07:09:18;16.10;;;13.05;;
55328;SDS011;41205;44.264;19.884;2023-03-20T07:11:46;13.85;;;12.05;;
55328;SDS011;41205;44.264;19.884;2023-03-20T07:14:11;16.15;;;12.25;;
55328;SDS011;41205;44.264;19.884;2023-03-20T07:16:38;13.82;;;11.65;;
55328;SDS011;41205;44.264;19.884;2023-03-20T07:19:04;13.23;;;11.85;;
55328;SDS011;41205;44.264;19.884;2023-03-20T07:21:29;20.30;;;15.40;;
55328;SDS011;41205;44.264;19.884;2023-03-20T07:23:55;18.23;;;15.77;;
55328;SDS011;41205;44.264;19.884;2023-03-20T07:26:22;15.52;;;12.63;;
55328;SDS011;41205;44.264;19.884;2023-03-20T07:28:47;15.57;;;12.35;;
55328;SDS011;41205;44.264;19.884;2023-03-20T07:31:20;12.10;;;10.02;;
55328;SDS011;41205;44.264;19.884;2023-03-20T07:33:47;11.98;;;9.25;;
55328;SDS011;41205;44.264;19.884;2023-03-20T07:36:13;10.85;;;9.45;;
55328;SDS011;41205;44.264;19.884;2023-03-20T07:38:38;9.93;;;8.93;;
55328;SDS011;41205;44.264;19.884;2023-03-20T07:41:04;10.50;;;9.45;;
55328;SDS011;41205;44.264;19.884;2023-03-20T07:43:30;13.15;;;11.85;;
55328;SDS011;41205;44.264;19.884;2023-03-20T07:45:56;11.20;;;10.18;;
55328;SDS011;41205;44.264;19.884;2023-03-20T07:48:22;14.25;;;10.77;;
55328;SDS011;41205;44.264;19.884;2023-03-20T07:50:47;11.68;;;10.48;;
55328;SDS011;41205;44.264;19.884;2023-03-20T07:53:13;13.73;;;11.27;;
55328;SDS011;41205;44.264;19.884;2023-03-20T07:55:39;11.68;;;10.55;;
55328;SDS011;41205;44.264;19.884;2023-03-20T07:58:04;12.07;;;9.95;;
55328;SDS011;41205;44.264;19.884;2023-03-20T08:00:32;12.85;;;11.65;;
55328;SDS011;41205;44.264;19.884;2023-03-20T08:02:58;11.32;;;9.95;;
55328;SDS011;41205;44.264;19.884;2023-03-20T08:05:23;11.63;;;10.63;;
55328;SDS011;41205;44.264;19.884;2023-03-20T08:07:49;12.32;;;11.13;;
55328;SDS011;41205;44.264;19.884;2023-03-20T08:10:15;22.30;;;17.58;;
55328;SDS011;41205;44.264;19.884;2023-03-20T08:12:41;16.52;;;9.73;;
55328;SDS011;41205;44.264;19.884;2023-03-20T08:15:07;19.67;;;17.00;;
55328;SDS011;41205;44.264;19.884;2023-03-20T08:17:33;21.27;;;19.00;;
55328;SDS011;41205;44.264;19.884;2023-03-20T08:19:59;11.93;;;9.25;;
55328;SDS011;41205;44.264;19.884;2023-03-20T08:22:25;18.42;;;16.52;;
55328;SDS011;41205;44.264;19.884;2023-03-20T08:24:50;10.70;;;9.80;;
55328;SDS011;41205;44.264;19.884;2023-03-20T08:27:16;16.33;;;14.68;;
55328;SDS011;41205;44.264;19.884;2023-03-20T08:29:42;11.23;;;10.15;;
55328;SDS011;41205;44.264;19.884;2023-03-20T08:32:08;22.75;;;20.63;;
55328;SDS011;41205;44.264;19.884;2023-03-20T08:34:33;10.20;;;9.18;;
55328;SDS011;41205;44.264;19.884;2023-03-20T08:37:01;26.33;;;20.08;;
55328;SDS011;41205;44.264;19.884;2023-03-20T08:39:27;12.18;;;10.95;;
55328;SDS011;41205;44.264;19.884;2023-03-20T08:41:53;15.05;;;13.50;;
55328;SDS011;41205;44.264;19.884;2023-03-20T08:44:19;13.88;;;12.65;;
55328;SDS011;41205;44.264;19.884;2023-03-20T08:46:45;98.68;;;89.00;;
55328;SDS011;41205;44.264;19.884;2023-03-20T08:49:11;13.13;;;11.73;;
55328;SDS011;41205;44.264;19.884;2023-03-20T08:51:37;13.88;;;12.25;;
55328;SDS011;41205;44.264;19.884;2023-03-20T08:54:02;8.73;;;7.85;;
55328;SDS011;41205;44.264;19.884;2023-03-20T08:56:28;12.27;;;9.40;;
55328;SDS011;41205;44.264;19.884;2023-03-20T08:58:54;11.23;;;10.13;;
55328;SDS011;41205;44.264;19.884;2023-03-20T09:01:20;16.27;;;14.55;;
55328;SDS011;41205;44.264;19.884;2023-03-20T09:03:46;10.25;;;9.35;;
55328;SDS011;41205;44.264;19.884;2023-03-20T09:06:12;10.88;;;9.20;;
55328;SDS011;41205;44.264;19.884;2023-03-20T09:08:37;9.88;;;7.55;;
55328;SDS011;41205;44.264;19.884;2023-03-20T09:11:03;9.15;;;8.25;;
55328;SDS011;41205;44.264;19.884;2023-03-20T09:13:30;14.60;;;13.07;;
55328;SDS011;41205;44.264;19.884;2023-03-20T09:15:56;22.42;;;20.02;;
55328;SDS011;41205;44.264;19.884;2023-03-20T09:18:22;13.50;;;10.45;;
55328;SDS011;41205;44.264;19.884;2023-03-20T09:20:48;9.65;;;8.45;;
55328;SDS011;41205;44.264;19.884;2023-03-20T09:23:15;10.52;;;8.48;;
55328;SDS011;41205;44.264;19.884;2023-03-20T09:25:41;8.52;;;6.53;;
55328;SDS011;41205;44.264;19.884;2023-03-20T09:28:07;9.73;;;7.25;;
55328;SDS011;41205;44.264;19.884;2023-03-20T09:30:33;10.23;;;8.05;;
55328;SDS011;41205;44.264;19.884;2023-03-20T09:32:58;14.43;;;11.27;;
55328;SDS011;41205;44.264;19.884;2023-03-20T09:35:24;9.57;;;8.60;;
55328;SDS011;41205;44.264;19.884;2023-03-20T09:37:50;9.32;;;7.15;;
55328;SDS011;41205;44.264;19.884;2023-03-20T09:40:24;9.10;;;7.38;;
55328;SDS011;41205;44.264;19.884;2023-03-20T09:43:01;7.97;;;7.18;;
55328;SDS011;41205;44.264;19.884;2023-03-20T09:48:36;10.98;;;7.97;;
55328;SDS011;41205;44.264;19.884;2023-03-20T09:51:21;12.27;;;10.45;;
55328;SDS011;41205;44.264;19.884;2023-03-20T09:54:06;11.35;;;8.73;;
55328;SDS011;41205;44.264;19.884;2023-03-20T09:56:37;10.10;;;8.63;;
55328;SDS011;41205;44.264;19.884;2023-03-20T09:59:03;11.00;;;9.73;;
55328;SDS011;41205;44.264;19.884;2023-03-20T10:01:44;10.68;;;8.18;;
55328;SDS011;41205;44.264;19.884;2023-03-20T10:04:16;10.35;;;7.80;;
55328;SDS011;41205;44.264;19.884;2023-03-20T10:06:41;8.02;;;6.97;;
55328;SDS011;41205;44.264;19.884;2023-03-20T10:09:14;9.20;;;7.80;;
55328;SDS011;41205;44.264;19.884;2023-03-20T10:20:24;12.30;;;6.57;;
55328;SDS011;41205;44.264;19.884;2023-03-20T10:23:12;9.70;;;7.35;;
55328;SDS011;41205;44.264;19.884;2023-03-20T10:25:47;12.60;;;10.25;;
55328;SDS011;41205;44.264;19.884;2023-03-20T10:28:18;13.13;;;10.93;;
55328;SDS011;41205;44.264;19.884;2023-03-20T10:38:43;11.40;;;6.40;;
55328;SDS011;41205;44.264;19.884;2023-03-20T10:41:25;9.87;;;6.97;;
55328;SDS011;41205;44.264;19.884;2023-03-20T10:43:56;11.15;;;8.98;;
55328;SDS011;41205;44.264;19.884;2023-03-20T10:46:30;16.27;;;11.18;;
55328;SDS011;41205;44.264;19.884;2023-03-20T10:49:06;12.50;;;9.95;;
55328;SDS011;41205;44.264;19.884;2023-03-20T10:51:52;11.77;;;7.68;;
55328;SDS011;41205;44.264;19.884;2023-03-20T10:54:23;9.77;;;7.30;;
55328;SDS011;41205;44.264;19.884;2023-03-20T11:00:03;10.90;;;8.00;;
55328;SDS011;41205;44.264;19.884;2023-03-20T11:02:31;14.07;;;10.15;;
55328;SDS011;41205;44.264;19.884;2023-03-20T11:05:01;13.10;;;9.40;;
55328;SDS011;41205;44.264;19.884;2023-03-20T11:07:45;17.95;;;10.60;;
55328;SDS011;41205;44.264;19.884;2023-03-20T11:10:13;15.40;;;11.70;;
55328;SDS011;41205;44.264;19.884;2023-03-20T11:12:42;13.70;;;11.43;;
55328;SDS011;41205;44.264;19.884;2023-03-20T11:15:26;12.18;;;10.48;;
55328;SDS011;41205;44.264;19.884;2023-03-20T11:17:56;13.15;;;8.52;;
55328;SDS011;41205;44.264;19.884;2023-03-20T11:20:39;9.88;;;7.25;;
55328;SDS011;41205;44.264;19.884;2023-03-20T11:23:13;9.88;;;6.93;;
55328;SDS011;41205;44.264;19.884;2023-03-20T11:25:57;12.18;;;8.70;;
55328;SDS011;41205;44.264;19.884;2023-03-20T11:34:07;11.18;;;7.43;;
55328;SDS011;41205;44.264;19.884;2023-03-20T11:36:54;9.35;;;7.80;;
55328;SDS011;41205;44.264;19.884;2023-03-20T11:39:28;8.25;;;6.75;;
55328;SDS011;41205;44.264;19.884;2023-03-20T11:41:59;12.98;;;8.45;;
55328;SDS011;41205;44.264;19.884;2023-03-20T11:44:27;13.57;;;9.55;;
55328;SDS011;41205;44.264;19.884;2023-03-20T11:46:55;13.43;;;8.38;;
55328;SDS011;41205;44.264;19.884;2023-03-20T11:49:30;18.48;;;10.52;;
55328;SDS011;41205;44.264;19.884;2023-03-20T11:52:01;13.45;;;8.45;;
55328;SDS011;41205;44.264;19.884;2023-03-20T11:54:38;15.77;;;8.45;;
55328;SDS011;41205;44.264;19.884;2023-03-20T12:00:04;9.52;;;7.78;;
55328;SDS011;41205;44.264;19.884;2023-03-20T12:02:50;14.57;;;9.82;;
55328;SDS011;41205;44.264;19.884;2023-03-20T12:05:18;14.90;;;8.52;;
55328;SDS011;41205;44.264;19.884;2023-03-20T12:07:52;16.73;;;10.35;;
55328;SDS011;41205;44.264;19.884;2023-03-20T12:10:22;14.93;;;9.55;;
55328;SDS011;41205;44.264;19.884;2023-03-20T12:15:25;11.18;;;7.72;;
55328;SDS011;41205;44.264;19.884;2023-03-20T12:26:27;11.15;;;7.18;;
55328;SDS011;41205;44.264;19.884;2023-03-20T12:29:04;10.88;;;6.78;;
55328;SDS011;41205;44.264;19.884;2023-03-20T12:32:23;16.25;;;10.60;;
55328;SDS011;41205;44.264;19.884;2023-03-20T12:34:25;13.32;;;7.43;;
55328;SDS011;41205;44.264;19.884;2023-03-20T12:36:56;20.00;;;9.63;;
55328;SDS011;41205;44.264;19.884;2023-03-20T12:39:22;10.10;;;6.60;;
55328;SDS011;41205;44.264;19.884;2023-03-20T12:45:11;12.38;;;7.72;;
55328;SDS011;41205;44.264;19.884;2023-03-20T12:50:43;12.63;;;9.82;;
55328;SDS011;41205;44.264;19.884;2023-03-20T13:01:31;20.50;;;12.02;;
55328;SDS011;41205;44.264;19.884;2023-03-20T13:04:13;11.88;;;9.23;;
55328;SDS011;41205;44.264;19.884;2023-03-20T13:07:13;13.45;;;9.88;;
55328;SDS011;41205;44.264;19.884;2023-03-20T13:15:16;23.48;;;11.35;;
55328;SDS011;41205;44.264;19.884;2023-03-20T13:20:32;15.20;;;11.10;;
55328;SDS011;41205;44.264;19.884;2023-03-20T13:33:42;19.88;;;15.18;;
55328;SDS011;41205;44.264;19.884;2023-03-20T13:41:43;13.73;;;8.97;;
55328;SDS011;41205;44.264;19.884;2023-03-20T13:44:11;21.80;;;13.50;;
55328;SDS011;41205;44.264;19.884;2023-03-20T13:46:53;14.25;;;10.52;;
55328;SDS011;41205;44.264;19.884;2023-03-20T13:52:11;14.88;;;9.15;;
55328;SDS011;41205;44.264;19.884;2023-03-20T14:00:37;14.18;;;8.80;;
55328;SDS011;41205;44.264;19.884;2023-03-20T14:05:46;16.00;;;11.82;;
55328;SDS011;41205;44.264;19.884;2023-03-20T14:13:31;13.18;;;8.85;;
55328;SDS011;41205;44.264;19.884;2023-03-20T14:15:59;13.65;;;8.90;;
55328;SDS011;41205;44.264;19.884;2023-03-20T14:18:27;11.27;;;8.18;;
55328;SDS011;41205;44.264;19.884;2023-03-20T14:21:08;15.10;;;9.05;;
55328;SDS011;41205;44.264;19.884;2023-03-20T14:23:38;11.30;;;8.10;;
55328;SDS011;41205;44.264;19.884;2023-03-20T14:26:21;13.90;;;7.75;;
55328;SDS011;41205;44.264;19.884;2023-03-20T14:28:53;15.02;;;11.27;;
55328;SDS011;41205;44.264;19.884;2023-03-20T14:31:28;8.63;;;6.25;;
55328;SDS011;41205;44.264;19.884;2023-03-20T14:33:59;12.05;;;8.45;;
55328;SDS011;41205;44.264;19.884;2023-03-20T14:39:40;10.25;;;6.55;;
55328;SDS011;41205;44.264;19.884;2023-03-20T14:42:19;10.23;;;6.50;;
55328;SDS011;41205;44.264;19.884;2023-03-20T14:45:15;9.60;;;7.30;;
55328;SDS011;41205;44.264;19.884;2023-03-20T14:53:02;12.68;;;10.65;;
55328;SDS011;41205;44.264;19.884;2023-03-20T14:55:49;63.17;;;43.30;;
55328;SDS011;41205;44.264;19.884;2023-03-20T14:58:34;24.70;;;16.17;;
55328;SDS011;41205;44.264;19.884;2023-03-20T15:01:04;55.33;;;31.77;;
55328;SDS011;41205;44.264;19.884;2023-03-20T15:03:32;21.83;;;15.55;;
55328;SDS011;41205;44.264;19.884;2023-03-20T15:06:03;16.23;;;12.70;;
55328;SDS011;41205;44.264;19.884;2023-03-20T15:08:32;16.35;;;10.60;;
55328;SDS011;41205;44.264;19.884;2023-03-20T15:11:03;17.15;;;12.48;;
55328;SDS011;41205;44.264;19.884;2023-03-20T15:13:32;17.40;;;15.35;;
55328;SDS011;41205;44.264;19.884;2023-03-20T15:16:09;14.07;;;10.93;;
55328;SDS011;41205;44.264;19.884;2023-03-20T15:18:42;14.60;;;11.35;;
55328;SDS011;41205;44.264;19.884;2023-03-20T15:21:18;23.23;;;15.90;;
55328;SDS011;41205;44.264;19.884;2023-03-20T15:23:47;37.00;;;21.38;;
55328;SDS011;41205;44.264;19.884;2023-03-20T15:26:15;18.02;;;14.98;;
55328;SDS011;41205;44.264;19.884;2023-03-20T15:28:44;18.80;;;15.15;;
55328;SDS011;41205;44.264;19.884;2023-03-20T15:31:27;39.85;;;23.88;;
55328;SDS011;41205;44.264;19.884;2023-03-20T15:33:56;47.35;;;27.55;;
55328;SDS011;41205;44.264;19.884;2023-03-20T15:36:27;29.98;;;21.50;;
55328;SDS011;41205;44.264;19.884;2023-03-20T15:39:28;25.42;;;15.32;;
55328;SDS011;41205;44.264;19.884;2023-03-20T15:41:55;13.60;;;10.20;;
55328;SDS011;41205;44.264;19.884;2023-03-20T15:44:35;23.25;;;17.23;;
55328;SDS011;41205;44.264;19.884;2023-03-20T15:49:33;23.67;;;19.92;;
55328;SDS011;41205;44.264;19.884;2023-03-20T15:52:00;20.27;;;15.20;;
55328;SDS011;41205;44.264;19.884;2023-03-20T15:54:29;23.52;;;17.80;;
55328;SDS011;41205;44.264;19.884;2023-03-20T15:56:56;26.35;;;17.45;;
55328;SDS011;41205;44.264;19.884;2023-03-20T15:59:25;26.70;;;18.77;;
55328;SDS011;41205;44.264;19.884;2023-03-20T16:01:55;22.55;;;15.13;;
55328;SDS011;41205;44.264;19.884;2023-03-20T16:04:22;22.83;;;15.60;;
55328;SDS011;41205;44.264;19.884;2023-03-20T16:06:56;31.70;;;21.80;;
55328;SDS011;41205;44.264;19.884;2023-03-20T16:09:24;44.15;;;27.25;;
55328;SDS011;41205;44.264;19.884;2023-03-20T16:11:55;54.25;;;38.28;;
55328;SDS011;41205;44.264;19.884;2023-03-20T16:14:26;67.03;;;49.53;;
55328;SDS011;41205;44.264;19.884;2023-03-20T16:16:58;58.80;;;45.10;;
55328;SDS011;41205;44.264;19.884;2023-03-20T16:19:25;68.25;;;50.47;;
55328;SDS011;41205;44.264;19.884;2023-03-20T16:21:56;55.17;;;42.33;;
55328;SDS011;41205;44.264;19.884;2023-03-20T16:24:28;64.88;;;49.90;;
55328;SDS011;41205;44.264;19.884;2023-03-20T16:26:59;66.78;;;49.97;;
55328;SDS011;41205;44.264;19.884;2023-03-20T16:29:30;73.70;;;52.58;;
55328;SDS011;41205;44.264;19.884;2023-03-20T16:32:06;58.78;;;49.75;;
55328;SDS011;41205;44.264;19.884;2023-03-20T16:34:44;50.70;;;41.10;;
55328;SDS011;41205;44.264;19.884;2023-03-20T16:40:00;50.40;;;36.92;;
55328;SDS011;41205;44.264;19.884;2023-03-20T16:42:37;59.38;;;46.65;;
55328;SDS011;41205;44.264;19.884;2023-03-20T16:45:03;53.40;;;41.47;;
55328;SDS011;41205;44.264;19.884;2023-03-20T16:47:33;57.05;;;46.33;;
55328;SDS011;41205;44.264;19.884;2023-03-20T16:52:31;61.92;;;50.00;;
55328;SDS011;41205;44.264;19.884;2023-03-20T16:55:02;88.88;;;66.93;;
55328;SDS011;41205;44.264;19.884;2023-03-20T16:57:32;145.27;;;119.40;;
55328;SDS011;41205;44.264;19.884;2023-03-20T17:00:03;149.63;;;118.85;;
55328;SDS011;41205;44.264;19.884;2023-03-20T17:02:45;115.50;;;88.18;;
55328;SDS011;41205;44.264;19.884;2023-03-20T17:05:17;85.23;;;65.90;;
55328;SDS011;41205;44.264;19.884;2023-03-20T17:07:47;45.67;;;35.05;;
55328;SDS011;41205;44.264;19.884;2023-03-20T17:12:40;57.67;;;45.10;;